Terminal Aerodrome Forecast
Issued by NWS

Home | Current Version | Previous Version | Text Only | Print | Product List | Glossary Off
Versions: 1 2 3 4 5 6 7 8 9 10 11 12 13 14

620
FTUS43 KICT 241140
TAFRSL
TAF
KRSL 241140Z 2412/2512 19011KT P6SM BKN200
     FM241500 19016G24KT P6SM FEW050 SCT250
     FM250100 17016G24KT P6SM VCTS BKN050CB
     FM250300 17011KT P6SM VCTS BKN100CB
     FM250600 18009KT P6SM BKN150=

USA.gov is the U.S. government's official web portal to all federal, state and local government web resources and services.